Salta, Argentina

12:13 PM ART on July 29, 2016 (GMT -0300)
Salta | | Change Station

Elev 4088 ft 24.86 °S, 65.49 °W | Updated 13 minutes ago

Mostly Cloudy
Mostly Cloudy
52 °F
Feels Like 52 °F
N
0
Wind Variable Wind from North

Today
High -- | Low -- °F
--% Chance of Precip.
Yesterday
High -- | Low -- °F
Precip. -- in
Pressure 30.09 in
Visibility 6.2 miles
Clouds Scattered Clouds 3000 ft
Mostly Cloudy 10000 ft
Dew Point 37 °F
Humidity 58%
Rainfall 0.00 in
Snow Depth Not available.
8:00 AM 6:56 PM
Waning Crescent, 21% visible
METAR SASA 291500Z 00000KT 9999 SCT030 BKN100 11/03 Q1019
Pressure 30.09 in
Visibility 6.2 miles
Clouds Scattered Clouds 3000 ft
Mostly Cloudy 10000 ft
Dew Point 37 °F
Humidity 58%
Rainfall 0.00 in
Snow Depth Not available.
8:00 AM 6:56 PM
Waning Crescent, 21% visible
METAR SASA 291500Z 00000KT 9999 SCT030 BKN100 11/03 Q1019

10-Day Weather Forecast

No radar image for this location.
×

Almanac

Astronomy

Jul. 29, 2016 Rise Set
Actual Time
Civil Twilight
Nautical Twilight
Astronomical Twilight
Moon
Length of Visible Light
Length of Day
Tomorrow will be .
, % of the Moon is Illuminated

Today's Extremes

Country Highs Country Lows

Community

WunderPhotos

Upload Photos

1,928,345 photos uploaded!

WunderBlog® & News

Nearby

Air Quality

  Air Quality AQ Index Pollutant
Not available.

Snow Depth

Station Depth Elevation

Earthquake Activity

City Distance Mag. Time & Date
Minimum magnitude displayed is 2.5.

Coastal Water Temperatures

Place Temperature

Stations

Nearby Weather Stations

Station Location Temp. Windchill Dew Point Humidity Wind Precip. Elev Updated Type